Time;durP1;ratioP1;P1;durP2;ratioP2;P2;SDS_P1;SDS_P2;PMS_P1;PMS_P2;Temp;Humidity;BMP_temperature;BMP_pressure;BME280_temperature;BME280_humidity;BME280_pressure;Samples;Min_cycle;Max_cycle;Signal;HPM_P1;HPM_P2
2023/07/16 00:02:22;;;;;;;4.47;1.57;;;;;;;;;;5052364;28;20398;-72
2023/07/16 00:04:47;;;;;;;3.20;1.50;;;;;;;;;;5048830;28;20024;-72
2023/07/16 00:07:12;;;;;;;3.57;1.67;;;;;;;;;;5051361;28;20013;-72
2023/07/16 00:09:37;;;;;;;5.73;1.70;;;;;;;;;;5049962;28;20354;-72
2023/07/16 00:12:03;;;;;;;6.13;1.57;;;;;;;;;;5049593;28;20274;-72
2023/07/16 00:14:28;;;;;;;4.03;1.70;;;;;;;;;;5050225;28;20017;-72
2023/07/16 00:16:53;;;;;;;2.35;1.40;;;;;;;;;;5052441;28;20033;-72
2023/07/16 00:19:18;;;;;;;6.78;1.33;;;;;;;;;;5051557;28;20028;-72
2023/07/16 00:21:43;;;;;;;1.47;1.07;;;;;;;;;;5050660;28;20057;-72
2023/07/16 00:24:09;;;;;;;2.97;1.23;;;;;;;;;;5051448;28;20313;-72
2023/07/16 00:26:34;;;;;;;3.20;1.53;;;;;;;;;;5051542;28;20023;-72
2023/07/16 00:28:59;;;;;;;7.05;1.42;;;;;;;;;;5049689;28;20271;-72
2023/07/16 00:31:24;;;;;;;5.40;1.43;;;;;;;;;;5051718;28;20033;-72
2023/07/16 00:33:49;;;;;;;7.10;1.43;;;;;;;;;;5049948;28;21055;-72
2023/07/16 00:36:14;;;;;;;2.77;1.30;;;;;;;;;;5051731;28;20036;-72
2023/07/16 00:38:41;;;;;;;5.53;1.57;;;;;;;;;;5049902;28;20275;-72
2023/07/16 00:41:06;;;;;;;3.55;1.27;;;;;;;;;;5051158;28;20271;-72
2023/07/16 00:43:31;;;;;;;4.90;1.70;;;;;;;;;;5050509;28;20021;-72
2023/07/16 00:45:57;;;;;;;4.50;1.40;;;;;;;;;;5050585;28;20027;-72
2023/07/16 00:48:22;;;;;;;3.35;1.45;;;;;;;;;;5054445;28;20481;-72
2023/07/16 00:50:47;;;;;;;5.78;1.48;;;;;;;;;;5046178;28;20025;-72
2023/07/16 00:53:13;;;;;;;4.77;1.00;;;;;;;;;;5049103;28;20051;-72
2023/07/16 00:55:38;;;;;;;6.72;1.77;;;;;;;;;;5050751;28;20659;-72
2023/07/16 00:58:05;;;;;;;7.82;2.40;;;;;;;;;;5052173;28;20020;-72
2023/07/16 01:00:34;;;;;;;3.97;1.48;;;;;;;;;;5050049;28;20044;-72
2023/07/16 01:03:01;;;;;;;6.00;1.75;;;;;;;;;;5045476;28;20031;-72
2023/07/16 01:05:30;;;;;;;9.48;1.75;;;;;;;;;;5050341;28;20048;-72
2023/07/16 01:07:59;;;;;;;6.03;1.58;;;;;;;;;;5046541;28;20386;-72
2023/07/16 01:10:25;;;;;;;3.08;1.17;;;;;;;;;;5049661;28;20056;-72
2023/07/16 01:12:51;;;;;;;4.00;1.50;;;;;;;;;;5047472;28;20048;-72
2023/07/16 01:15:16;;;;;;;5.32;1.38;;;;;;;;;;5050882;28;20391;-72
2023/07/16 01:17:42;;;;;;;3.78;1.40;;;;;;;;;;5049991;28;20029;-72
2023/07/16 01:20:08;;;;;;;4.60;2.10;;;;;;;;;;5048499;28;20164;-72
2023/07/16 01:22:58;;;;;;;3.17;1.25;;;;;;;;;;5050137;28;20409;-72
2023/07/16 01:25:53;;;;;;;7.07;3.20;;;;;;;;;;5048547;28;20009;-72
2023/07/16 01:28:36;;;;;;;7.32;1.50;;;;;;;;;;5049607;28;20103;-72
2023/07/16 01:31:02;;;;;;;4.65;1.25;;;;;;;;;;5047541;28;20017;-72
2023/07/16 01:33:27;;;;;;;7.10;1.80;;;;;;;;;;5048265;28;20389;-72
2023/07/16 01:35:52;;;;;;;8.60;1.52;;;;;;;;;;5051098;28;20099;-72
2023/07/16 01:38:18;;;;;;;12.35;1.45;;;;;;;;;;5051342;28;20114;-72
2023/07/16 01:40:43;;;;;;;2.47;0.85;;;;;;;;;;5050741;28;20155;-72
2023/07/16 01:43:09;;;;;;;4.63;1.95;;;;;;;;;;5048059;28;20120;-72
2023/07/16 01:45:34;;;;;;;5.67;1.30;;;;;;;;;;5050603;28;20032;-72
2023/07/16 01:47:59;;;;;;;4.67;1.37;;;;;;;;;;5049153;28;20271;-72
2023/07/16 01:50:24;;;;;;;5.50;1.90;;;;;;;;;;5049666;28;20275;-72
2023/07/16 01:52:49;;;;;;;7.53;1.38;;;;;;;;;;5047148;28;20031;-72
2023/07/16 01:55:15;;;;;;;3.00;1.15;;;;;;;;;;5050198;28;20021;-72
2023/07/16 01:57:40;;;;;;;3.47;1.10;;;;;;;;;;5050483;28;20057;-72
2023/07/16 02:00:05;;;;;;;7.03;1.77;;;;;;;;;;5048744;28;20348;-72
2023/07/16 02:02:31;;;;;;;2.70;1.27;;;;;;;;;;5049272;28;20021;-72
2023/07/16 02:04:56;;;;;;;3.33;1.33;;;;;;;;;;5046904;28;20119;-72
2023/07/16 02:07:23;;;;;;;2.67;1.20;;;;;;;;;;5047623;28;20278;-72
2023/07/16 02:09:48;;;;;;;5.47;1.80;;;;;;;;;;5049380;28;20279;-72
2023/07/16 02:12:13;;;;;;;3.67;1.27;;;;;;;;;;5044979;28;20035;-72
2023/07/16 02:14:38;;;;;;;4.73;1.77;;;;;;;;;;5051429;28;20107;-72
2023/07/16 02:17:04;;;;;;;3.25;1.50;;;;;;;;;;5049519;28;20056;-72
2023/07/16 02:19:29;;;;;;;7.65;1.80;;;;;;;;;;5048414;28;20017;-72
2023/07/16 02:21:54;;;;;;;3.70;1.20;;;;;;;;;;5049070;28;20028;-72
2023/07/16 02:24:19;;;;;;;2.97;1.30;;;;;;;;;;5048859;28;20056;-72
2023/07/16 02:26:45;;;;;;;5.40;1.37;;;;;;;;;;5047431;28;20372;-72
2023/07/16 02:29:10;;;;;;;5.97;1.57;;;;;;;;;;5050431;28;20029;-72
2023/07/16 02:31:36;;;;;;;7.25;1.65;;;;;;;;;;5047509;28;20279;-72
2023/07/16 02:34:01;;;;;;;4.53;1.40;;;;;;;;;;5043090;28;20106;-72
2023/07/16 02:36:26;;;;;;;5.38;1.50;;;;;;;;;;5050062;28;20017;-72
2023/07/16 02:38:51;;;;;;;4.83;1.50;;;;;;;;;;5049466;28;20035;-72
2023/07/16 02:41:16;;;;;;;7.37;1.60;;;;;;;;;;5047189;28;20274;-72
2023/07/16 02:43:42;;;;;;;5.20;1.67;;;;;;;;;;5047676;28;20764;-72
2023/07/16 02:46:07;;;;;;;4.57;1.70;;;;;;;;;;5043746;28;20373;-72
2023/07/16 02:48:32;;;;;;;3.23;1.40;;;;;;;;;;5045702;28;20281;-72
2023/07/16 02:50:57;;;;;;;5.60;1.60;;;;;;;;;;5049197;28;20274;-72
2023/07/16 02:53:22;;;;;;;4.97;1.43;;;;;;;;;;5046075;28;20020;-72
2023/07/16 02:55:47;;;;;;;2.83;1.37;;;;;;;;;;5046981;28;20776;-72
2023/07/16 02:58:13;;;;;;;2.03;1.20;;;;;;;;;;5045149;28;20057;-72
2023/07/16 03:00:38;;;;;;;3.17;1.27;;;;;;;;;;5048178;28;20280;-72
2023/07/16 03:03:03;;;;;;;4.45;1.63;;;;;;;;;;5047418;28;20100;-72
2023/07/16 03:05:29;;;;;;;3.60;1.02;;;;;;;;;;5046708;28;20083;-72
2023/07/16 03:07:54;;;;;;;7.85;2.03;;;;;;;;;;5046950;28;20017;-72
2023/07/16 03:10:20;;;;;;;5.65;1.30;;;;;;;;;;5047176;28;20032;-72
2023/07/16 03:12:45;;;;;;;5.18;1.30;;;;;;;;;;5047490;28;20017;-72
2023/07/16 03:15:10;;;;;;;13.87;1.77;;;;;;;;;;5046521;28;20112;-73
2023/07/16 03:17:35;;;;;;;5.33;1.50;;;;;;;;;;5049156;28;20025;-73
2023/07/16 03:20:01;;;;;;;2.33;1.17;;;;;;;;;;5048185;28;20278;-73
2023/07/16 03:22:26;;;;;;;7.65;1.30;;;;;;;;;;5047917;28;20640;-73
2023/07/16 03:24:51;;;;;;;6.00;1.30;;;;;;;;;;5045673;28;20049;-73
2023/07/16 03:27:16;;;;;;;6.33;1.70;;;;;;;;;;5048052;28;20027;-73
2023/07/16 03:29:41;;;;;;;8.23;3.67;;;;;;;;;;5048998;28;20264;-73
2023/07/16 03:32:07;;;;;;;7.80;1.33;;;;;;;;;;5049016;28;20820;-73
2023/07/16 03:34:32;;;;;;;2.80;1.25;;;;;;;;;;5047326;28;20021;-73
2023/07/16 03:36:57;;;;;;;5.83;1.37;;;;;;;;;;5044003;28;20028;-72
2023/07/16 03:39:22;;;;;;;8.57;1.50;;;;;;;;;;5044920;28;20725;-73
2023/07/16 03:41:48;;;;;;;4.73;1.00;;;;;;;;;;5048168;28;20279;-72
2023/07/16 03:44:13;;;;;;;2.80;1.07;;;;;;;;;;5048001;28;20280;-73
2023/07/16 03:46:38;;;;;;;6.30;1.53;;;;;;;;;;5046269;28;20409;-72
2023/07/16 03:49:06;;;;;;;7.20;1.20;;;;;;;;;;5048361;28;20275;-72
2023/07/16 03:51:31;;;;;;;7.68;2.08;;;;;;;;;;5047946;28;20287;-72
2023/07/16 03:53:56;;;;;;;8.80;1.20;;;;;;;;;;5044498;28;20025;-72
2023/07/16 03:56:22;;;;;;;7.53;1.57;;;;;;;;;;5042941;28;20295;-72
2023/07/16 03:58:47;;;;;;;7.33;1.63;;;;;;;;;;5048878;28;20293;-72
2023/07/16 04:01:12;;;;;;;6.27;1.63;;;;;;;;;;5047437;28;20274;-72
2023/07/16 04:03:37;;;;;;;5.93;1.90;;;;;;;;;;5047520;28;20664;-72
2023/07/16 04:06:06;;;;;;;9.07;2.40;;;;;;;;;;5051067;28;20286;-72
2023/07/16 04:08:31;;;;;;;3.78;1.45;;;;;;;;;;5045658;28;20337;-72
2023/07/16 04:10:56;;;;;;;3.33;1.35;;;;;;;;;;5050242;28;20642;-72
2023/07/16 04:13:21;;;;;;;9.17;1.87;;;;;;;;;;5051407;28;20024;-72
2023/07/16 04:15:46;;;;;;;4.55;1.60;;;;;;;;;;5049525;28;20279;-72
2023/07/16 04:18:12;;;;;;;10.97;1.40;;;;;;;;;;5049264;28;20079;-72
2023/07/16 04:20:37;;;;;;;6.40;1.70;;;;;;;;;;5052433;28;20256;-72
2023/07/16 04:23:02;;;;;;;5.27;2.17;;;;;;;;;;5051961;28;20694;-72
2023/07/16 04:25:27;;;;;;;9.40;1.70;;;;;;;;;;5051282;28;20271;-72
2023/07/16 04:27:53;;;;;;;7.10;1.73;;;;;;;;;;5049236;28;20087;-72
2023/07/16 04:30:18;;;;;;;7.67;1.77;;;;;;;;;;5049167;28;20048;-72
2023/07/16 04:32:43;;;;;;;3.88;1.60;;;;;;;;;;5050763;28;20750;-72
2023/07/16 04:35:08;;;;;;;6.10;1.50;;;;;;;;;;5048371;28;20573;-72
2023/07/16 04:37:33;;;;;;;4.25;1.52;;;;;;;;;;5050198;28;20291;-72
2023/07/16 04:39:59;;;;;;;11.63;1.47;;;;;;;;;;5049033;28;20029;-72
2023/07/16 04:42:24;;;;;;;5.43;1.67;;;;;;;;;;5051123;28;20787;-72
2023/07/16 04:44:49;;;;;;;4.60;1.40;;;;;;;;;;5049890;28;20275;-72
2023/07/16 04:47:14;;;;;;;6.87;1.40;;;;;;;;;;5045841;28;20374;-72
2023/07/16 04:49:39;;;;;;;6.05;1.85;;;;;;;;;;5048874;28;20300;-72
2023/07/16 04:52:05;;;;;;;4.63;1.60;;;;;;;;;;5048865;28;20106;-72
2023/07/16 04:54:34;;;;;;;8.57;2.05;;;;;;;;;;5048960;28;20271;-72
2023/07/16 04:56:59;;;;;;;14.80;2.10;;;;;;;;;;5049378;28;20025;-72
2023/07/16 04:59:25;;;;;;;4.60;1.47;;;;;;;;;;5048760;28;20035;-72
2023/07/16 05:01:50;;;;;;;9.93;1.87;;;;;;;;;;5050429;28;20032;-72
2023/07/16 05:04:15;;;;;;;6.97;1.93;;;;;;;;;;5049090;28;20284;-72
2023/07/16 05:06:40;;;;;;;9.60;1.63;;;;;;;;;;5046943;28;20926;-73
2023/07/16 05:09:05;;;;;;;6.63;1.50;;;;;;;;;;5048613;28;20275;-73
2023/07/16 05:11:30;;;;;;;7.00;2.00;;;;;;;;;;5049818;28;20079;-73
2023/07/16 05:13:56;;;;;;;9.07;1.90;;;;;;;;;;5049018;28;20510;-72
2023/07/16 05:16:22;;;;;;;6.18;1.98;;;;;;;;;;5041402;28;20278;-72
2023/07/16 05:18:47;;;;;;;11.70;1.95;;;;;;;;;;5046376;28;20028;-73
2023/07/16 05:21:12;;;;;;;10.85;2.10;;;;;;;;;;5049190;28;20436;-73
2023/07/16 05:23:37;;;;;;;5.83;2.00;;;;;;;;;;5047430;28;20066;-73
2023/07/16 05:26:02;;;;;;;11.47;2.60;;;;;;;;;;5048649;28;20267;-72
2023/07/16 05:28:28;;;;;;;4.50;1.63;;;;;;;;;;5050615;28;20302;-72
2023/07/16 05:31:00;;;;;;;5.03;1.90;;;;;;;;;;5051169;28;20082;-72
2023/07/16 05:33:25;;;;;;;11.73;2.03;;;;;;;;;;5046709;28;20036;-72
2023/07/16 05:35:50;;;;;;;5.32;1.95;;;;;;;;;;5045885;28;20478;-72
2023/07/16 05:38:15;;;;;;;13.80;2.03;;;;;;;;;;5045828;28;20024;-73
2023/07/16 05:40:41;;;;;;;6.23;2.30;;;;;;;;;;5046109;28;20748;-73
2023/07/16 05:43:06;;;;;;;6.37;1.50;;;;;;;;;;5046538;28;20040;-73
2023/07/16 05:45:31;;;;;;;6.07;1.90;;;;;;;;;;5049013;28;20275;-73
2023/07/16 05:47:56;;;;;;;8.67;2.23;;;;;;;;;;5044140;28;20096;-73
2023/07/16 05:50:21;;;;;;;5.43;1.50;;;;;;;;;;5044233;28;20036;-72
2023/07/16 05:52:48;;;;;;;4.67;1.80;;;;;;;;;;5045361;28;20279;-72
2023/07/16 05:55:13;;;;;;;11.35;2.55;;;;;;;;;;5049745;28;20691;-72
2023/07/16 05:57:38;;;;;;;10.50;2.45;;;;;;;;;;5042922;28;20052;-72
2023/07/16 06:00:04;;;;;;;8.27;2.53;;;;;;;;;;5039667;28;20509;-72
2023/07/16 06:02:29;;;;;;;11.98;3.05;;;;;;;;;;5046458;28;20358;-73
2023/07/16 06:04:55;;;;;;;6.33;2.33;;;;;;;;;;5049952;28;20017;-73
2023/07/16 06:07:20;;;;;;;10.23;2.60;;;;;;;;;;5043913;28;20021;-73
2023/07/16 06:09:45;;;;;;;7.95;2.58;;;;;;;;;;5038457;28;20272;-72
2023/07/16 06:12:10;;;;;;;7.63;3.55;;;;;;;;;;5048859;28;20024;-72
2023/07/16 06:14:35;;;;;;;11.13;3.10;;;;;;;;;;5048656;28;20013;-72
2023/07/16 06:17:01;;;;;;;13.33;2.87;;;;;;;;;;5047055;28;20283;-72
2023/07/16 06:19:26;;;;;;;8.20;2.93;;;;;;;;;;5048489;28;20025;-73
2023/07/16 06:21:51;;;;;;;10.93;3.38;;;;;;;;;;5050028;28;20027;-73
2023/07/16 06:24:16;;;;;;;12.90;3.37;;;;;;;;;;5048446;28;20479;-73
2023/07/16 06:26:41;;;;;;;6.60;3.03;;;;;;;;;;5048326;28;20268;-72
2023/07/16 06:29:06;;;;;;;8.85;3.45;;;;;;;;;;5049650;28;20048;-72
2023/07/16 06:31:32;;;;;;;8.77;3.10;;;;;;;;;;5049754;28;20020;-72
2023/07/16 06:33:57;;;;;;;13.40;4.03;;;;;;;;;;5047809;28;20268;-72
2023/07/16 06:36:22;;;;;;;8.10;3.77;;;;;;;;;;5048164;28;20735;-72
2023/07/16 06:38:47;;;;;;;14.10;3.83;;;;;;;;;;5051620;28;20025;-72
2023/07/16 06:41:12;;;;;;;9.27;3.50;;;;;;;;;;5051166;28;20520;-72
2023/07/16 06:43:38;;;;;;;8.70;3.40;;;;;;;;;;5045249;28;20361;-72
2023/07/16 06:46:03;;;;;;;10.47;4.57;;;;;;;;;;5045711;28;20548;-72
2023/07/16 06:48:28;;;;;;;8.32;3.70;;;;;;;;;;5046971;28;20017;-72
2023/07/16 06:50:53;;;;;;;9.07;3.77;;;;;;;;;;5046347;28;20616;-72
2023/07/16 06:53:19;;;;;;;11.10;4.20;;;;;;;;;;5040326;28;20074;-73
2023/07/16 06:55:44;;;;;;;8.98;3.10;;;;;;;;;;5046224;28;20429;-73
2023/07/16 06:58:10;;;;;;;11.50;3.13;;;;;;;;;;5044641;28;20032;-72
2023/07/16 07:00:35;;;;;;;10.27;3.35;;;;;;;;;;5044029;28;20641;-72
2023/07/16 07:03:01;;;;;;;12.57;3.70;;;;;;;;;;5045114;28;20021;-72
2023/07/16 07:05:26;;;;;;;15.13;3.67;;;;;;;;;;5047553;28;20021;-72
2023/07/16 07:07:51;;;;;;;10.25;3.17;;;;;;;;;;5047624;28;20013;-72
2023/07/16 07:10:16;;;;;;;13.53;3.53;;;;;;;;;;5055797;28;20031;-72
2023/07/16 07:12:42;;;;;;;8.10;3.78;;;;;;;;;;5048364;28;20320;-70
2023/07/16 07:15:07;;;;;;;9.10;3.80;;;;;;;;;;5048719;28;20471;-70
2023/07/16 07:17:32;;;;;;;8.75;3.83;;;;;;;;;;5044652;28;20822;-70
2023/07/16 07:19:58;;;;;;;7.33;3.37;;;;;;;;;;5046207;28;20032;-71
2023/07/16 07:22:23;;;;;;;13.37;3.73;;;;;;;;;;5049465;28;20362;-71
2023/07/16 07:24:49;;;;;;;8.77;2.90;;;;;;;;;;5049102;28;20380;-71
2023/07/16 07:27:14;;;;;;;8.05;3.30;;;;;;;;;;5047068;28;20021;-71
2023/07/16 07:29:39;;;;;;;9.77;3.37;;;;;;;;;;5045634;28;20537;-71
2023/07/16 07:32:04;;;;;;;7.83;3.20;;;;;;;;;;5046245;28;20028;-71
2023/07/16 07:34:30;;;;;;;10.23;3.67;;;;;;;;;;5049933;28;20420;-71
2023/07/16 07:36:55;;;;;;;16.50;3.47;;;;;;;;;;5049178;28;20114;-71
2023/07/16 07:39:20;;;;;;;10.30;4.17;;;;;;;;;;5048940;28;20031;-71
2023/07/16 07:41:45;;;;;;;3.40;2.17;;;;;;;;;;5049984;28;21048;-71
2023/07/16 07:44:10;;;;;;;10.00;3.23;;;;;;;;;;5049896;28;20764;-71
2023/07/16 07:46:36;;;;;;;11.13;3.10;;;;;;;;;;5051716;28;20151;-72
2023/07/16 07:49:01;;;;;;;4.90;1.60;;;;;;;;;;5050007;28;20389;-72
2023/07/16 07:51:26;;;;;;;11.93;3.00;;;;;;;;;;5050521;28;20806;-72
2023/07/16 07:53:51;;;;;;;8.05;3.25;;;;;;;;;;5051402;28;20021;-72
2023/07/16 07:56:16;;;;;;;6.87;3.27;;;;;;;;;;5051448;28;20054;-72
2023/07/16 07:58:42;;;;;;;7.50;3.30;;;;;;;;;;5047525;28;20021;-72
2023/07/16 08:01:07;;;;;;;9.75;3.08;;;;;;;;;;5050503;28;20063;-72
2023/07/16 08:03:33;;;;;;;5.97;3.47;;;;;;;;;;5050814;28;20140;-73
2023/07/16 08:05:58;;;;;;;4.60;2.92;;;;;;;;;;5051535;28;20017;-72
2023/07/16 08:08:23;;;;;;;6.63;3.30;;;;;;;;;;5050551;28;20031;-72
2023/07/16 08:10:48;;;;;;;6.07;3.50;;;;;;;;;;5050818;28;20033;-72
2023/07/16 08:13:14;;;;;;;6.25;2.80;;;;;;;;;;5049293;28;20025;-72
2023/07/16 08:15:39;;;;;;;9.27;5.07;;;;;;;;;;5050115;28;20031;-72
2023/07/16 08:18:04;;;;;;;11.07;3.10;;;;;;;;;;5046218;28;20374;-72
2023/07/16 08:20:29;;;;;;;10.32;3.58;;;;;;;;;;5050468;28;20053;-72
2023/07/16 08:22:55;;;;;;;7.80;3.30;;;;;;;;;;5051237;28;20041;-71
2023/07/16 08:25:20;;;;;;;8.10;3.45;;;;;;;;;;5045736;28;20314;-71
2023/07/16 08:27:45;;;;;;;15.47;4.47;;;;;;;;;;5050703;28;20631;-71
2023/07/16 08:30:11;;;;;;;6.97;3.65;;;;;;;;;;5046583;28;20290;-72
2023/07/16 08:32:36;;;;;;;5.13;3.00;;;;;;;;;;5046477;28;20029;-71
2023/07/16 08:35:01;;;;;;;7.05;3.50;;;;;;;;;;5040543;28;20565;-72
2023/07/16 08:37:26;;;;;;;19.37;3.57;;;;;;;;;;5049605;28;20115;-72
2023/07/16 08:39:53;;;;;;;8.90;3.23;;;;;;;;;;5045497;28;20494;-72
2023/07/16 08:42:19;;;;;;;7.75;3.40;;;;;;;;;;5044104;28;20096;-72
2023/07/16 08:44:44;;;;;;;10.13;3.72;;;;;;;;;;5044877;28;20624;-72
2023/07/16 08:47:09;;;;;;;10.38;3.15;;;;;;;;;;5047055;28;20477;-72
2023/07/16 08:49:35;;;;;;;4.45;1.25;;;;;;;;;;5044603;28;20033;-72
2023/07/16 08:52:01;;;;;;;5.55;2.95;;;;;;;;;;5050013;28;20035;-72
2023/07/16 08:54:26;;;;;;;6.50;3.28;;;;;;;;;;5047596;28;20088;-71
2023/07/16 08:56:51;;;;;;;7.20;3.50;;;;;;;;;;5047188;28;20033;-72
2023/07/16 08:59:17;;;;;;;6.93;3.75;;;;;;;;;;5046121;28;20036;-72
2023/07/16 09:01:42;;;;;;;6.25;2.90;;;;;;;;;;5049017;28;20556;-71
2023/07/16 09:04:08;;;;;;;6.57;3.10;;;;;;;;;;5049790;28;20021;-72
2023/07/16 09:06:33;;;;;;;5.43;2.60;;;;;;;;;;5049220;28;20067;-72
2023/07/16 09:08:58;;;;;;;9.47;3.73;;;;;;;;;;5046336;28;20020;-72
2023/07/16 09:11:23;;;;;;;7.07;3.17;;;;;;;;;;5045422;28;20267;-72
2023/07/16 09:13:49;;;;;;;7.40;3.08;;;;;;;;;;5043112;28;20684;-72
2023/07/16 09:16:17;;;;;;;10.80;3.40;;;;;;;;;;5042004;28;20375;-72
2023/07/16 09:18:42;;;;;;;8.18;2.85;;;;;;;;;;5053298;28;20429;-72
2023/07/16 09:21:08;;;;;;;8.45;2.95;;;;;;;;;;5053093;28;20023;-73
2023/07/16 09:23:33;;;;;;;4.55;2.03;;;;;;;;;;5049379;28;20024;-73
2023/07/16 09:25:58;;;;;;;10.27;3.72;;;;;;;;;;5046810;28;20482;-72
2023/07/16 09:28:24;;;;;;;10.70;3.75;;;;;;;;;;5049030;28;20033;-73
2023/07/16 09:30:50;;;;;;;7.05;3.25;;;;;;;;;;5049388;28;20351;-72
2023/07/16 09:33:16;;;;;;;5.72;2.80;;;;;;;;;;5047827;28;20032;-72
2023/07/16 09:35:41;;;;;;;7.05;3.30;;;;;;;;;;5049154;28;20037;-72
2023/07/16 09:38:09;;;;;;;9.18;3.13;;;;;;;;;;5047813;28;20029;-72
2023/07/16 09:40:35;;;;;;;6.00;2.80;;;;;;;;;;5050092;28;20044;-72
2023/07/16 09:43:01;;;;;;;9.52;2.10;;;;;;;;;;5047640;28;20389;-73
2023/07/16 09:45:27;;;;;;;8.73;3.03;;;;;;;;;;5047839;28;20074;-73
2023/07/16 09:47:52;;;;;;;9.95;3.80;;;;;;;;;;5047645;28;20049;-73
2023/07/16 09:50:17;;;;;;;11.88;2.95;;;;;;;;;;5049738;28;20100;-73
2023/07/16 09:52:43;;;;;;;5.95;2.20;;;;;;;;;;5049499;28;20021;-73
2023/07/16 09:55:08;;;;;;;5.95;2.50;;;;;;;;;;5046730;28;20025;-72
2023/07/16 09:57:38;;;;;;;7.07;2.40;;;;;;;;;;5049072;28;20024;-72
2023/07/16 10:00:11;;;;;;;9.50;2.83;;;;;;;;;;5049283;28;20033;-73
2023/07/16 10:02:37;;;;;;;4.47;2.20;;;;;;;;;;5044977;28;20043;-72
2023/07/16 10:05:15;;;;;;;5.78;3.35;;;;;;;;;;5047941;28;20525;-73
2023/07/16 10:07:40;;;;;;;6.43;2.25;;;;;;;;;;5045261;28;20013;-73
2023/07/16 10:10:09;;;;;;;6.82;2.80;;;;;;;;;;5046711;28;20025;-73
2023/07/16 10:12:35;;;;;;;4.63;2.37;;;;;;;;;;5048634;28;20103;-72
2023/07/16 10:15:02;;;;;;;6.35;2.20;;;;;;;;;;5049604;28;20029;-73
2023/07/16 10:17:29;;;;;;;5.38;2.35;;;;;;;;;;5046003;28;20056;-72
2023/07/16 10:19:56;;;;;;;8.38;2.90;;;;;;;;;;5049709;28;20021;-72
2023/07/16 10:22:30;;;;;;;6.18;2.95;;;;;;;;;;5046789;28;20044;-73
2023/07/16 10:24:56;;;;;;;8.35;2.33;;;;;;;;;;5048452;28;20508;-72
2023/07/16 10:27:28;;;;;;;5.43;2.60;;;;;;;;;;5044869;28;20033;-72
2023/07/16 10:29:54;;;;;;;6.47;2.30;;;;;;;;;;5046491;28;20020;-72
2023/07/16 10:32:20;;;;;;;6.75;2.63;;;;;;;;;;5048794;28;20017;-72
2023/07/16 10:34:45;;;;;;;5.80;2.40;;;;;;;;;;5047063;28;20029;-72
2023/07/16 10:37:10;;;;;;;9.67;2.87;;;;;;;;;;5048209;28;20260;-72
2023/07/16 10:39:35;;;;;;;11.90;2.73;;;;;;;;;;5045730;28;20063;-72
2023/07/16 10:42:01;;;;;;;6.73;2.20;;;;;;;;;;5042569;28;20066;-72
2023/07/16 10:44:27;;;;;;;5.75;2.30;;;;;;;;;;5040034;28;20188;-73
2023/07/16 10:46:54;;;;;;;5.80;2.83;;;;;;;;;;5044010;28;20429;-72
2023/07/16 10:49:28;;;;;;;6.75;2.63;;;;;;;;;;5046286;28;20071;-73
2023/07/16 10:51:54;;;;;;;4.25;2.50;;;;;;;;;;5050308;28;20383;-73
2023/07/16 10:54:19;;;;;;;4.50;2.53;;;;;;;;;;5045288;28;20037;-72
2023/07/16 10:56:46;;;;;;;4.63;2.50;;;;;;;;;;5046953;28;20040;-72
2023/07/16 10:59:12;;;;;;;7.38;2.45;;;;;;;;;;5048150;28;20021;-72
2023/07/16 11:01:37;;;;;;;5.00;3.15;;;;;;;;;;5047538;28;20055;-72
2023/07/16 11:04:06;;;;;;;8.65;1.88;;;;;;;;;;5042132;28;20660;-72
2023/07/16 11:06:32;;;;;;;7.90;3.00;;;;;;;;;;5048646;28;20550;-73
2023/07/16 11:09:05;;;;;;;6.80;2.70;;;;;;;;;;5046529;28;20501;-72
2023/07/16 11:11:30;;;;;;;9.68;2.55;;;;;;;;;;5048161;28;20025;-73
2023/07/16 11:13:56;;;;;;;5.37;2.13;;;;;;;;;;5047826;28;20074;-72
2023/07/16 11:16:21;;;;;;;11.73;2.77;;;;;;;;;;5051333;28;20271;-73
2023/07/16 11:18:47;;;;;;;4.60;2.63;;;;;;;;;;5051905;28;20294;-72
2023/07/16 11:21:12;;;;;;;6.38;2.45;;;;;;;;;;5052245;28;20021;-72
2023/07/16 11:23:37;;;;;;;5.15;2.80;;;;;;;;;;5051274;28;20353;-72
2023/07/16 11:26:03;;;;;;;6.15;3.00;;;;;;;;;;5052326;28;20102;-72
2023/07/16 11:28:38;;;;;;;4.78;2.17;;;;;;;;;;5052953;28;20529;-72
2023/07/16 11:31:11;;;;;;;6.80;2.47;;;;;;;;;;5051831;28;20404;-72
2023/07/16 11:33:36;;;;;;;9.30;2.97;;;;;;;;;;5051749;28;20032;-72
2023/07/16 11:36:01;;;;;;;5.45;2.55;;;;;;;;;;5052137;28;20021;-72
2023/07/16 11:38:26;;;;;;;7.47;2.37;;;;;;;;;;5048598;28;20029;-73
2023/07/16 11:40:52;;;;;;;12.43;2.67;;;;;;;;;;5047734;28;20350;-72
2023/07/16 11:43:18;;;;;;;8.87;2.53;;;;;;;;;;5050229;28;20290;-73
2023/07/16 11:45:47;;;;;;;6.95;2.80;;;;;;;;;;5050143;28;20768;-73
2023/07/16 11:48:12;;;;;;;4.55;2.33;;;;;;;;;;5050983;28;20029;-72
2023/07/16 11:50:37;;;;;;;6.47;2.73;;;;;;;;;;5049537;28;20021;-72
2023/07/16 11:53:03;;;;;;;6.88;2.50;;;;;;;;;;5047754;28;20111;-73
2023/07/16 11:55:28;;;;;;;5.38;2.65;;;;;;;;;;5050936;28;20032;-72
2023/07/16 11:57:53;;;;;;;7.65;2.60;;;;;;;;;;5051264;28;20079;-72
2023/07/16 12:00:19;;;;;;;7.68;2.17;;;;;;;;;;5044366;28;20021;-72
2023/07/16 12:02:50;;;;;;;6.78;2.78;;;;;;;;;;5046362;28;20018;-72
2023/07/16 12:05:16;;;;;;;15.35;2.70;;;;;;;;;;5049324;28;20782;-72
2023/07/16 12:07:41;;;;;;;7.85;2.53;;;;;;;;;;5048973;28;20032;-72
2023/07/16 12:10:06;;;;;;;7.17;2.43;;;;;;;;;;5049829;28;20029;-73
2023/07/16 12:12:32;;;;;;;5.88;2.67;;;;;;;;;;5050983;28;20400;-72
2023/07/16 12:14:57;;;;;;;7.47;2.67;;;;;;;;;;5049562;28;20031;-72
2023/07/16 12:17:22;;;;;;;7.67;2.60;;;;;;;;;;5047525;28;20047;-72
2023/07/16 12:19:48;;;;;;;6.00;2.53;;;;;;;;;;5050045;28;20263;-73
2023/07/16 12:22:16;;;;;;;8.83;2.70;;;;;;;;;;5047802;28;20286;-73
2023/07/16 12:24:41;;;;;;;6.45;2.70;;;;;;;;;;5049351;28;20367;-73
2023/07/16 12:27:06;;;;;;;5.33;2.70;;;;;;;;;;5046865;28;20093;-72
2023/07/16 12:29:31;;;;;;;5.63;3.20;;;;;;;;;;5050359;28;20029;-72
2023/07/16 12:31:56;;;;;;;7.13;3.53;;;;;;;;;;5052156;28;20021;-72
2023/07/16 12:34:21;;;;;;;5.20;2.80;;;;;;;;;;5049253;28;20031;-72
2023/07/16 12:36:47;;;;;;;7.37;2.97;;;;;;;;;;5051097;28;20470;-72
2023/07/16 12:39:12;;;;;;;5.77;2.30;;;;;;;;;;5044114;28;20078;-72
2023/07/16 12:41:37;;;;;;;6.93;2.60;;;;;;;;;;5048486;28;20352;-72
2023/07/16 12:44:02;;;;;;;9.93;2.33;;;;;;;;;;5049134;28;20127;-72
2023/07/16 12:46:27;;;;;;;8.18;2.88;;;;;;;;;;5050763;28;20027;-72
2023/07/16 12:48:53;;;;;;;10.20;2.40;;;;;;;;;;5051510;28;20033;-72
2023/07/16 12:51:18;;;;;;;7.27;2.43;;;;;;;;;;5050441;28;20276;-72
2023/07/16 12:53:43;;;;;;;7.67;2.33;;;;;;;;;;5049423;28;20056;-72
2023/07/16 12:56:09;;;;;;;5.75;2.22;;;;;;;;;;5048075;28;20485;-72
2023/07/16 12:58:34;;;;;;;7.00;2.28;;;;;;;;;;5047724;28;20028;-73
2023/07/16 13:00:59;;;;;;;7.30;2.93;;;;;;;;;;5051025;28;20029;-73
2023/07/16 13:03:24;;;;;;;6.10;2.63;;;;;;;;;;5048550;28;20267;-73
2023/07/16 13:05:49;;;;;;;10.53;3.70;;;;;;;;;;5047192;28;20020;-73
2023/07/16 13:08:15;;;;;;;9.60;2.77;;;;;;;;;;5049979;28;20128;-73
2023/07/16 13:10:40;;;;;;;9.93;2.85;;;;;;;;;;5048078;28;20016;-72
2023/07/16 13:13:07;;;;;;;4.10;2.45;;;;;;;;;;5049886;28;20027;-73
2023/07/16 13:15:33;;;;;;;5.45;2.65;;;;;;;;;;5050240;28;20112;-72
2023/07/16 13:17:58;;;;;;;7.28;3.03;;;;;;;;;;5050366;28;20453;-73
2023/07/16 13:20:23;;;;;;;7.28;3.58;;;;;;;;;;5052507;28;20115;-73
2023/07/16 13:22:49;;;;;;;6.85;2.85;;;;;;;;;;5048134;28;20017;-73
2023/07/16 13:25:14;;;;;;;5.78;2.92;;;;;;;;;;5049804;28;20095;-73
2023/07/16 13:27:39;;;;;;;9.50;3.08;;;;;;;;;;5047064;28;20025;-73
2023/07/16 13:30:05;;;;;;;10.27;3.28;;;;;;;;;;5049965;28;20021;-73
2023/07/16 13:32:30;;;;;;;7.32;2.85;;;;;;;;;;5049977;28;20021;-73
2023/07/16 13:34:55;;;;;;;6.80;3.77;;;;;;;;;;5049541;28;20029;-73
2023/07/16 13:37:20;;;;;;;5.57;3.13;;;;;;;;;;5047947;28;20267;-73
2023/07/16 13:39:46;;;;;;;4.83;2.77;;;;;;;;;;5049798;28;20097;-72
2023/07/16 13:42:11;;;;;;;8.90;2.80;;;;;;;;;;5048124;28;20036;-72
2023/07/16 13:44:36;;;;;;;5.40;2.42;;;;;;;;;;5047896;28;20282;-72
2023/07/16 13:47:02;;;;;;;10.00;2.90;;;;;;;;;;5044008;28;20051;-72
2023/07/16 13:49:27;;;;;;;8.63;2.70;;;;;;;;;;5047597;28;20024;-72
2023/07/16 13:51:52;;;;;;;4.97;2.73;;;;;;;;;;5049162;28;20033;-72
2023/07/16 13:54:18;;;;;;;6.95;3.30;;;;;;;;;;5050765;28;20405;-72
2023/07/16 13:56:43;;;;;;;5.50;2.75;;;;;;;;;;5047452;28;20033;-72
2023/07/16 13:59:09;;;;;;;9.73;3.20;;;;;;;;;;5047091;28;20032;-72
2023/07/16 14:01:37;;;;;;;9.15;2.92;;;;;;;;;;5046679;28;20159;-72
2023/07/16 14:04:02;;;;;;;5.70;2.47;;;;;;;;;;5050106;28;20029;-73
2023/07/16 14:06:28;;;;;;;13.87;3.27;;;;;;;;;;5050545;28;20481;-73
2023/07/16 14:08:53;;;;;;;6.40;2.70;;;;;;;;;;5049899;28;20648;-73
2023/07/16 14:11:18;;;;;;;5.90;3.17;;;;;;;;;;5050176;28;20021;-72
2023/07/16 14:13:43;;;;;;;8.68;2.65;;;;;;;;;;5050346;28;20012;-73
2023/07/16 14:16:09;;;;;;;6.68;2.72;;;;;;;;;;5048939;28;20083;-73
2023/07/16 14:18:34;;;;;;;6.00;2.50;;;;;;;;;;5046501;28;20024;-73
2023/07/16 14:21:00;;;;;;;5.60;2.40;;;;;;;;;;5049076;28;20021;-73
2023/07/16 14:23:26;;;;;;;6.88;2.42;;;;;;;;;;5050326;28;20036;-73
2023/07/16 14:25:51;;;;;;;8.27;2.63;;;;;;;;;;5050110;28;20470;-73
2023/07/16 14:28:16;;;;;;;6.60;2.47;;;;;;;;;;5050279;28;20065;-73
2023/07/16 14:30:41;;;;;;;11.17;2.97;;;;;;;;;;5049306;28;20028;-73
2023/07/16 14:33:06;;;;;;;6.67;2.53;;;;;;;;;;5050060;28;20047;-72